sensor_id;sensor_type;location;lat;lon;timestamp;P1;durP1;ratioP1;P2;durP2;ratioP2
41572;SDS011;27286;47.870;19.006;2023-03-19T00:02:22;15.15;;;9.35;;
41572;SDS011;27286;47.870;19.006;2023-03-19T00:04:47;30.65;;;17.30;;
41572;SDS011;27286;47.870;19.006;2023-03-19T00:07:13;12.98;;;8.48;;
41572;SDS011;27286;47.870;19.006;2023-03-19T00:09:40;22.05;;;11.90;;
41572;SDS011;27286;47.870;19.006;2023-03-19T00:12:06;24.75;;;13.77;;
41572;SDS011;27286;47.870;19.006;2023-03-19T00:14:32;21.17;;;12.80;;
41572;SDS011;27286;47.870;19.006;2023-03-19T00:16:57;18.10;;;12.70;;
41572;SDS011;27286;47.870;19.006;2023-03-19T00:19:23;20.58;;;11.63;;
41572;SDS011;27286;47.870;19.006;2023-03-19T00:21:49;17.98;;;11.35;;
41572;SDS011;27286;47.870;19.006;2023-03-19T00:24:15;11.07;;;7.45;;
41572;SDS011;27286;47.870;19.006;2023-03-19T00:26:41;10.38;;;6.57;;
41572;SDS011;27286;47.870;19.006;2023-03-19T00:29:07;11.60;;;6.93;;
41572;SDS011;27286;47.870;19.006;2023-03-19T00:31:33;12.07;;;7.68;;
41572;SDS011;27286;47.870;19.006;2023-03-19T00:33:59;15.65;;;9.70;;
41572;SDS011;27286;47.870;19.006;2023-03-19T00:36:25;12.23;;;8.77;;
41572;SDS011;27286;47.870;19.006;2023-03-19T00:38:52;13.82;;;9.20;;
41572;SDS011;27286;47.870;19.006;2023-03-19T00:41:18;19.13;;;11.27;;
41572;SDS011;27286;47.870;19.006;2023-03-19T00:43:45;18.90;;;11.30;;
41572;SDS011;27286;47.870;19.006;2023-03-19T00:46:10;21.85;;;11.40;;
41572;SDS011;27286;47.870;19.006;2023-03-19T00:48:36;13.48;;;8.68;;
41572;SDS011;27286;47.870;19.006;2023-03-19T00:51:06;12.50;;;8.57;;
41572;SDS011;27286;47.870;19.006;2023-03-19T00:53:35;12.15;;;7.78;;
41572;SDS011;27286;47.870;19.006;2023-03-19T00:56:02;12.45;;;7.13;;
41572;SDS011;27286;47.870;19.006;2023-03-19T00:58:28;9.93;;;7.80;;
41572;SDS011;27286;47.870;19.006;2023-03-19T01:00:53;12.50;;;8.55;;
41572;SDS011;27286;47.870;19.006;2023-03-19T01:03:19;14.35;;;9.57;;
41572;SDS011;27286;47.870;19.006;2023-03-19T01:05:48;17.23;;;10.20;;
41572;SDS011;27286;47.870;19.006;2023-03-19T01:08:14;48.85;;;18.83;;
41572;SDS011;27286;47.870;19.006;2023-03-19T01:10:41;29.17;;;12.23;;
41572;SDS011;27286;47.870;19.006;2023-03-19T01:13:06;12.70;;;8.88;;
41572;SDS011;27286;47.870;19.006;2023-03-19T01:15:36;15.40;;;9.20;;
41572;SDS011;27286;47.870;19.006;2023-03-19T01:18:02;12.07;;;7.70;;
41572;SDS011;27286;47.870;19.006;2023-03-19T01:20:28;11.15;;;6.97;;
41572;SDS011;27286;47.870;19.006;2023-03-19T01:22:53;12.27;;;8.07;;
41572;SDS011;27286;47.870;19.006;2023-03-19T01:25:19;12.20;;;7.55;;
41572;SDS011;27286;47.870;19.006;2023-03-19T01:27:44;10.77;;;7.88;;
41572;SDS011;27286;47.870;19.006;2023-03-19T01:30:10;11.95;;;8.18;;
41572;SDS011;27286;47.870;19.006;2023-03-19T01:32:36;13.75;;;8.55;;
41572;SDS011;27286;47.870;19.006;2023-03-19T01:35:01;11.23;;;7.55;;
41572;SDS011;27286;47.870;19.006;2023-03-19T01:37:27;12.32;;;8.00;;
41572;SDS011;27286;47.870;19.006;2023-03-19T01:39:53;12.93;;;7.97;;
41572;SDS011;27286;47.870;19.006;2023-03-19T01:42:18;14.10;;;8.63;;
41572;SDS011;27286;47.870;19.006;2023-03-19T01:44:44;11.55;;;8.38;;
41572;SDS011;27286;47.870;19.006;2023-03-19T01:47:13;13.90;;;9.15;;
41572;SDS011;27286;47.870;19.006;2023-03-19T01:49:42;14.05;;;8.25;;
41572;SDS011;27286;47.870;19.006;2023-03-19T01:52:11;12.20;;;8.52;;
41572;SDS011;27286;47.870;19.006;2023-03-19T01:54:39;14.98;;;8.00;;
41572;SDS011;27286;47.870;19.006;2023-03-19T01:57:06;11.55;;;7.80;;
41572;SDS011;27286;47.870;19.006;2023-03-19T01:59:35;13.05;;;8.85;;
41572;SDS011;27286;47.870;19.006;2023-03-19T02:02:12;14.93;;;9.57;;
41572;SDS011;27286;47.870;19.006;2023-03-19T02:04:44;16.42;;;10.73;;
41572;SDS011;27286;47.870;19.006;2023-03-19T02:07:13;16.90;;;11.60;;
41572;SDS011;27286;47.870;19.006;2023-03-19T02:09:39;20.13;;;11.38;;
41572;SDS011;27286;47.870;19.006;2023-03-19T02:12:06;16.80;;;11.55;;
41572;SDS011;27286;47.870;19.006;2023-03-19T02:14:33;18.90;;;11.75;;
41572;SDS011;27286;47.870;19.006;2023-03-19T02:16:58;39.10;;;21.42;;
41572;SDS011;27286;47.870;19.006;2023-03-19T02:19:30;17.30;;;11.45;;
41572;SDS011;27286;47.870;19.006;2023-03-19T02:22:07;19.55;;;11.85;;
41572;SDS011;27286;47.870;19.006;2023-03-19T02:24:38;18.30;;;12.13;;
41572;SDS011;27286;47.870;19.006;2023-03-19T02:27:09;15.63;;;10.45;;
41572;SDS011;27286;47.870;19.006;2023-03-19T02:29:34;14.32;;;9.27;;
41572;SDS011;27286;47.870;19.006;2023-03-19T02:32:01;17.42;;;11.02;;
41572;SDS011;27286;47.870;19.006;2023-03-19T02:37:03;13.60;;;10.13;;
41572;SDS011;27286;47.870;19.006;2023-03-19T02:42:13;16.98;;;10.77;;
41572;SDS011;27286;47.870;19.006;2023-03-19T02:44:41;13.05;;;9.05;;
41572;SDS011;27286;47.870;19.006;2023-03-19T02:47:07;14.85;;;9.60;;
41572;SDS011;27286;47.870;19.006;2023-03-19T02:49:32;14.98;;;10.43;;
41572;SDS011;27286;47.870;19.006;2023-03-19T02:51:58;16.85;;;10.65;;
41572;SDS011;27286;47.870;19.006;2023-03-19T02:54:23;16.23;;;11.40;;
41572;SDS011;27286;47.870;19.006;2023-03-19T02:56:49;19.90;;;11.30;;
41572;SDS011;27286;47.870;19.006;2023-03-19T02:59:16;15.32;;;10.77;;
41572;SDS011;27286;47.870;19.006;2023-03-19T03:01:41;16.17;;;11.60;;
41572;SDS011;27286;47.870;19.006;2023-03-19T03:04:07;14.18;;;9.60;;
41572;SDS011;27286;47.870;19.006;2023-03-19T03:06:32;17.85;;;10.77;;
41572;SDS011;27286;47.870;19.006;2023-03-19T03:08:58;15.95;;;10.20;;
41572;SDS011;27286;47.870;19.006;2023-03-19T03:11:23;15.38;;;10.60;;
41572;SDS011;27286;47.870;19.006;2023-03-19T03:13:49;18.63;;;12.77;;
41572;SDS011;27286;47.870;19.006;2023-03-19T03:16:14;15.57;;;10.88;;
41572;SDS011;27286;47.870;19.006;2023-03-19T03:18:40;15.98;;;11.10;;
41572;SDS011;27286;47.870;19.006;2023-03-19T03:21:06;17.52;;;10.63;;
41572;SDS011;27286;47.870;19.006;2023-03-19T03:23:32;17.17;;;11.32;;
41572;SDS011;27286;47.870;19.006;2023-03-19T03:25:57;18.85;;;12.27;;
41572;SDS011;27286;47.870;19.006;2023-03-19T03:28:22;17.55;;;10.98;;
41572;SDS011;27286;47.870;19.006;2023-03-19T03:30:48;17.55;;;11.13;;
41572;SDS011;27286;47.870;19.006;2023-03-19T03:33:14;19.42;;;11.73;;
41572;SDS011;27286;47.870;19.006;2023-03-19T03:35:41;17.95;;;12.88;;
41572;SDS011;27286;47.870;19.006;2023-03-19T03:38:06;15.60;;;10.65;;
41572;SDS011;27286;47.870;19.006;2023-03-19T03:40:32;18.20;;;12.40;;
41572;SDS011;27286;47.870;19.006;2023-03-19T03:42:58;21.20;;;11.73;;
41572;SDS011;27286;47.870;19.006;2023-03-19T03:45:23;17.98;;;11.35;;
41572;SDS011;27286;47.870;19.006;2023-03-19T03:47:49;16.02;;;10.45;;
41572;SDS011;27286;47.870;19.006;2023-03-19T03:50:15;17.13;;;11.15;;
41572;SDS011;27286;47.870;19.006;2023-03-19T03:52:41;15.43;;;11.10;;
41572;SDS011;27286;47.870;19.006;2023-03-19T03:55:07;14.35;;;8.98;;
41572;SDS011;27286;47.870;19.006;2023-03-19T03:57:33;14.80;;;9.77;;
41572;SDS011;27286;47.870;19.006;2023-03-19T03:59:58;17.67;;;10.65;;
41572;SDS011;27286;47.870;19.006;2023-03-19T04:02:23;15.80;;;9.95;;
41572;SDS011;27286;47.870;19.006;2023-03-19T04:04:49;17.55;;;9.90;;
41572;SDS011;27286;47.870;19.006;2023-03-19T04:07:15;15.50;;;9.93;;
41572;SDS011;27286;47.870;19.006;2023-03-19T04:09:41;16.85;;;10.30;;
41572;SDS011;27286;47.870;19.006;2023-03-19T04:12:06;14.27;;;9.43;;
41572;SDS011;27286;47.870;19.006;2023-03-19T04:14:32;17.60;;;9.98;;
41572;SDS011;27286;47.870;19.006;2023-03-19T04:16:57;13.23;;;8.48;;
41572;SDS011;27286;47.870;19.006;2023-03-19T04:19:23;17.67;;;11.73;;
41572;SDS011;27286;47.870;19.006;2023-03-19T04:21:48;15.23;;;8.95;;
41572;SDS011;27286;47.870;19.006;2023-03-19T04:24:14;14.48;;;9.45;;
41572;SDS011;27286;47.870;19.006;2023-03-19T04:26:39;13.20;;;8.70;;
41572;SDS011;27286;47.870;19.006;2023-03-19T04:29:05;17.45;;;9.35;;
41572;SDS011;27286;47.870;19.006;2023-03-19T04:31:32;13.52;;;9.45;;
41572;SDS011;27286;47.870;19.006;2023-03-19T04:33:57;12.15;;;8.15;;
41572;SDS011;27286;47.870;19.006;2023-03-19T04:36:23;14.52;;;9.80;;
41572;SDS011;27286;47.870;19.006;2023-03-19T04:38:48;15.02;;;10.27;;
41572;SDS011;27286;47.870;19.006;2023-03-19T04:41:14;12.70;;;8.95;;
41572;SDS011;27286;47.870;19.006;2023-03-19T04:43:42;12.00;;;9.02;;
41572;SDS011;27286;47.870;19.006;2023-03-19T04:46:07;12.40;;;8.90;;
41572;SDS011;27286;47.870;19.006;2023-03-19T04:48:33;12.73;;;9.07;;
41572;SDS011;27286;47.870;19.006;2023-03-19T04:51:00;16.80;;;9.45;;
41572;SDS011;27286;47.870;19.006;2023-03-19T04:53:27;15.18;;;8.85;;
41572;SDS011;27286;47.870;19.006;2023-03-19T04:55:52;15.25;;;8.88;;
41572;SDS011;27286;47.870;19.006;2023-03-19T04:58:18;11.88;;;8.98;;
41572;SDS011;27286;47.870;19.006;2023-03-19T05:00:44;14.55;;;9.48;;
41572;SDS011;27286;47.870;19.006;2023-03-19T05:03:11;13.98;;;8.95;;
41572;SDS011;27286;47.870;19.006;2023-03-19T05:05:37;14.25;;;9.23;;
41572;SDS011;27286;47.870;19.006;2023-03-19T05:08:03;16.45;;;9.60;;
41572;SDS011;27286;47.870;19.006;2023-03-19T05:10:29;12.68;;;8.70;;
41572;SDS011;27286;47.870;19.006;2023-03-19T05:12:54;13.50;;;8.10;;
41572;SDS011;27286;47.870;19.006;2023-03-19T05:15:20;13.55;;;8.73;;
41572;SDS011;27286;47.870;19.006;2023-03-19T05:17:45;15.52;;;9.20;;
41572;SDS011;27286;47.870;19.006;2023-03-19T05:20:11;14.52;;;9.15;;
41572;SDS011;27286;47.870;19.006;2023-03-19T05:22:36;18.58;;;9.18;;
41572;SDS011;27286;47.870;19.006;2023-03-19T05:25:02;11.68;;;8.25;;
41572;SDS011;27286;47.870;19.006;2023-03-19T05:27:28;15.30;;;9.10;;
41572;SDS011;27286;47.870;19.006;2023-03-19T05:29:53;13.82;;;8.57;;
41572;SDS011;27286;47.870;19.006;2023-03-19T05:32:19;14.23;;;8.35;;
41572;SDS011;27286;47.870;19.006;2023-03-19T05:34:45;13.77;;;8.60;;
41572;SDS011;27286;47.870;19.006;2023-03-19T05:37:10;12.75;;;7.93;;
41572;SDS011;27286;47.870;19.006;2023-03-19T05:39:36;12.02;;;7.78;;
41572;SDS011;27286;47.870;19.006;2023-03-19T05:42:01;14.57;;;9.43;;
41572;SDS011;27286;47.870;19.006;2023-03-19T05:44:27;14.00;;;8.85;;
41572;SDS011;27286;47.870;19.006;2023-03-19T05:46:52;16.67;;;9.05;;
41572;SDS011;27286;47.870;19.006;2023-03-19T05:49:18;15.07;;;9.02;;
41572;SDS011;27286;47.870;19.006;2023-03-19T05:51:43;18.70;;;8.88;;
41572;SDS011;27286;47.870;19.006;2023-03-19T05:54:09;15.27;;;8.95;;
41572;SDS011;27286;47.870;19.006;2023-03-19T05:56:34;11.55;;;8.15;;
41572;SDS011;27286;47.870;19.006;2023-03-19T05:59:00;12.82;;;8.15;;
41572;SDS011;27286;47.870;19.006;2023-03-19T06:01:25;12.35;;;8.63;;
41572;SDS011;27286;47.870;19.006;2023-03-19T06:03:51;12.80;;;9.40;;
41572;SDS011;27286;47.870;19.006;2023-03-19T06:06:16;14.77;;;9.38;;
41572;SDS011;27286;47.870;19.006;2023-03-19T06:08:42;14.50;;;9.27;;
41572;SDS011;27286;47.870;19.006;2023-03-19T06:11:07;13.20;;;7.45;;
41572;SDS011;27286;47.870;19.006;2023-03-19T06:13:33;13.57;;;7.80;;
41572;SDS011;27286;47.870;19.006;2023-03-19T06:15:59;13.25;;;8.20;;
41572;SDS011;27286;47.870;19.006;2023-03-19T06:18:25;13.63;;;8.10;;
41572;SDS011;27286;47.870;19.006;2023-03-19T06:20:50;13.18;;;8.98;;
41572;SDS011;27286;47.870;19.006;2023-03-19T06:23:17;11.90;;;8.55;;
41572;SDS011;27286;47.870;19.006;2023-03-19T06:25:42;12.23;;;7.95;;
41572;SDS011;27286;47.870;19.006;2023-03-19T06:28:08;12.70;;;7.78;;
41572;SDS011;27286;47.870;19.006;2023-03-19T06:30:33;12.75;;;8.18;;
41572;SDS011;27286;47.870;19.006;2023-03-19T06:32:59;10.15;;;7.40;;
41572;SDS011;27286;47.870;19.006;2023-03-19T06:35:24;14.50;;;8.77;;
41572;SDS011;27286;47.870;19.006;2023-03-19T06:37:51;11.70;;;7.88;;
41572;SDS011;27286;47.870;19.006;2023-03-19T06:40:16;12.30;;;8.27;;
41572;SDS011;27286;47.870;19.006;2023-03-19T06:42:46;12.73;;;7.25;;
41572;SDS011;27286;47.870;19.006;2023-03-19T06:45:12;11.40;;;6.72;;
41572;SDS011;27286;47.870;19.006;2023-03-19T06:47:40;11.13;;;7.65;;
41572;SDS011;27286;47.870;19.006;2023-03-19T06:50:07;13.20;;;8.10;;
41572;SDS011;27286;47.870;19.006;2023-03-19T06:52:34;10.60;;;6.93;;
41572;SDS011;27286;47.870;19.006;2023-03-19T06:55:00;9.75;;;6.60;;
41572;SDS011;27286;47.870;19.006;2023-03-19T06:57:25;11.20;;;6.88;;
41572;SDS011;27286;47.870;19.006;2023-03-19T06:59:51;11.02;;;6.93;;
41572;SDS011;27286;47.870;19.006;2023-03-19T07:02:17;10.43;;;6.82;;
41572;SDS011;27286;47.870;19.006;2023-03-19T07:04:43;13.35;;;6.57;;
41572;SDS011;27286;47.870;19.006;2023-03-19T07:07:08;9.93;;;6.05;;
41572;SDS011;27286;47.870;19.006;2023-03-19T07:09:33;7.63;;;5.80;;
41572;SDS011;27286;47.870;19.006;2023-03-19T07:11:59;7.60;;;5.05;;
41572;SDS011;27286;47.870;19.006;2023-03-19T07:14:24;7.75;;;5.50;;
41572;SDS011;27286;47.870;19.006;2023-03-19T07:16:50;7.68;;;5.82;;
41572;SDS011;27286;47.870;19.006;2023-03-19T07:19:15;7.20;;;5.60;;
41572;SDS011;27286;47.870;19.006;2023-03-19T07:21:41;8.38;;;5.03;;
41572;SDS011;27286;47.870;19.006;2023-03-19T07:24:07;9.23;;;5.57;;
41572;SDS011;27286;47.870;19.006;2023-03-19T07:26:32;5.93;;;4.70;;
41572;SDS011;27286;47.870;19.006;2023-03-19T07:28:58;6.28;;;4.15;;
41572;SDS011;27286;47.870;19.006;2023-03-19T07:31:23;10.13;;;5.47;;
41572;SDS011;27286;47.870;19.006;2023-03-19T07:33:49;6.30;;;4.57;;
41572;SDS011;27286;47.870;19.006;2023-03-19T07:36:14;6.88;;;4.13;;
41572;SDS011;27286;47.870;19.006;2023-03-19T07:38:40;5.88;;;3.90;;
41572;SDS011;27286;47.870;19.006;2023-03-19T07:41:05;7.38;;;5.18;;
41572;SDS011;27286;47.870;19.006;2023-03-19T07:43:31;7.95;;;4.53;;
41572;SDS011;27286;47.870;19.006;2023-03-19T07:45:56;6.85;;;3.92;;
41572;SDS011;27286;47.870;19.006;2023-03-19T07:48:23;6.20;;;4.13;;
41572;SDS011;27286;47.870;19.006;2023-03-19T07:50:51;6.35;;;3.45;;
41572;SDS011;27286;47.870;19.006;2023-03-19T07:53:18;5.72;;;3.67;;
41572;SDS011;27286;47.870;19.006;2023-03-19T07:55:44;4.95;;;3.40;;
41572;SDS011;27286;47.870;19.006;2023-03-19T07:58:11;5.25;;;3.17;;
41572;SDS011;27286;47.870;19.006;2023-03-19T08:00:36;5.32;;;3.42;;
41572;SDS011;27286;47.870;19.006;2023-03-19T08:03:02;7.28;;;3.60;;
41572;SDS011;27286;47.870;19.006;2023-03-19T08:05:27;6.68;;;3.75;;
41572;SDS011;27286;47.870;19.006;2023-03-19T08:07:52;4.82;;;2.97;;
41572;SDS011;27286;47.870;19.006;2023-03-19T08:10:18;5.82;;;3.78;;
41572;SDS011;27286;47.870;19.006;2023-03-19T08:12:43;6.95;;;4.15;;
41572;SDS011;27286;47.870;19.006;2023-03-19T08:15:09;6.07;;;3.45;;
41572;SDS011;27286;47.870;19.006;2023-03-19T08:17:36;6.45;;;4.10;;
41572;SDS011;27286;47.870;19.006;2023-03-19T08:20:06;5.30;;;3.72;;
41572;SDS011;27286;47.870;19.006;2023-03-19T08:22:37;7.68;;;3.58;;
41572;SDS011;27286;47.870;19.006;2023-03-19T08:25:03;12.65;;;3.90;;
41572;SDS011;27286;47.870;19.006;2023-03-19T08:27:30;7.40;;;4.72;;
41572;SDS011;27286;47.870;19.006;2023-03-19T08:29:58;8.52;;;4.72;;
41572;SDS011;27286;47.870;19.006;2023-03-19T08:32:23;9.68;;;4.82;;
41572;SDS011;27286;47.870;19.006;2023-03-19T08:34:49;11.85;;;6.38;;
41572;SDS011;27286;47.870;19.006;2023-03-19T08:37:15;6.32;;;3.90;;
41572;SDS011;27286;47.870;19.006;2023-03-19T08:39:41;7.07;;;4.22;;
41572;SDS011;27286;47.870;19.006;2023-03-19T08:42:07;6.20;;;4.00;;
41572;SDS011;27286;47.870;19.006;2023-03-19T08:44:32;8.57;;;4.50;;
41572;SDS011;27286;47.870;19.006;2023-03-19T08:46:57;6.78;;;3.92;;
41572;SDS011;27286;47.870;19.006;2023-03-19T08:49:23;8.52;;;4.25;;
41572;SDS011;27286;47.870;19.006;2023-03-19T08:51:48;6.68;;;3.95;;
41572;SDS011;27286;47.870;19.006;2023-03-19T08:54:14;7.70;;;4.05;;
41572;SDS011;27286;47.870;19.006;2023-03-19T08:56:40;7.57;;;4.10;;
41572;SDS011;27286;47.870;19.006;2023-03-19T08:59:05;6.05;;;3.72;;
41572;SDS011;27286;47.870;19.006;2023-03-19T09:01:31;5.40;;;4.00;;
41572;SDS011;27286;47.870;19.006;2023-03-19T09:03:57;5.32;;;3.42;;
41572;SDS011;27286;47.870;19.006;2023-03-19T09:06:22;9.07;;;4.50;;
41572;SDS011;27286;47.870;19.006;2023-03-19T09:08:48;8.10;;;4.05;;
41572;SDS011;27286;47.870;19.006;2023-03-19T09:11:13;7.20;;;4.13;;
41572;SDS011;27286;47.870;19.006;2023-03-19T09:13:40;7.85;;;4.32;;
41572;SDS011;27286;47.870;19.006;2023-03-19T09:16:06;8.43;;;4.95;;
41572;SDS011;27286;47.870;19.006;2023-03-19T09:18:32;10.48;;;6.35;;
41572;SDS011;27286;47.870;19.006;2023-03-19T09:20:58;7.82;;;4.15;;
41572;SDS011;27286;47.870;19.006;2023-03-19T09:23:24;6.60;;;3.80;;
41572;SDS011;27286;47.870;19.006;2023-03-19T09:25:49;5.00;;;4.20;;
41572;SDS011;27286;47.870;19.006;2023-03-19T09:28:15;12.75;;;6.50;;
41572;SDS011;27286;47.870;19.006;2023-03-19T09:30:40;11.38;;;4.97;;
41572;SDS011;27286;47.870;19.006;2023-03-19T09:33:07;7.72;;;4.60;;
41572;SDS011;27286;47.870;19.006;2023-03-19T09:35:32;7.75;;;6.18;;
41572;SDS011;27286;47.870;19.006;2023-03-19T09:37:58;4.85;;;3.60;;
41572;SDS011;27286;47.870;19.006;2023-03-19T09:40:28;6.55;;;3.38;;
41572;SDS011;27286;47.870;19.006;2023-03-19T09:48:50;10.57;;;3.30;;
41572;SDS011;27286;47.870;19.006;2023-03-19T09:51:19;6.93;;;3.72;;
41572;SDS011;27286;47.870;19.006;2023-03-19T09:53:54;5.75;;;3.22;;
41572;SDS011;27286;47.870;19.006;2023-03-19T09:56:24;10.90;;;3.38;;
41572;SDS011;27286;47.870;19.006;2023-03-19T09:58:51;4.93;;;3.30;;
41572;SDS011;27286;47.870;19.006;2023-03-19T10:01:22;7.43;;;3.22;;
41572;SDS011;27286;47.870;19.006;2023-03-19T10:04:30;8.77;;;3.78;;
41572;SDS011;27286;47.870;19.006;2023-03-19T10:07:07;6.82;;;3.25;;
41572;SDS011;27286;47.870;19.006;2023-03-19T10:09:40;5.72;;;3.92;;
41572;SDS011;27286;47.870;19.006;2023-03-19T10:12:18;6.32;;;3.38;;
41572;SDS011;27286;47.870;19.006;2023-03-19T10:14:51;10.93;;;3.60;;
41572;SDS011;27286;47.870;19.006;2023-03-19T10:17:35;11.18;;;3.65;;
41572;SDS011;27286;47.870;19.006;2023-03-19T10:22:49;6.22;;;3.53;;
41572;SDS011;27286;47.870;19.006;2023-03-19T10:25:21;4.53;;;2.97;;
41572;SDS011;27286;47.870;19.006;2023-03-19T10:27:52;7.97;;;3.30;;
41572;SDS011;27286;47.870;19.006;2023-03-19T10:30:23;6.93;;;3.75;;
41572;SDS011;27286;47.870;19.006;2023-03-19T10:32:53;8.45;;;3.15;;
41572;SDS011;27286;47.870;19.006;2023-03-19T10:35:37;4.72;;;3.20;;
41572;SDS011;27286;47.870;19.006;2023-03-19T10:38:20;4.32;;;3.33;;
41572;SDS011;27286;47.870;19.006;2023-03-19T10:40:50;8.43;;;3.83;;
41572;SDS011;27286;47.870;19.006;2023-03-19T10:43:27;3.45;;;2.78;;
41572;SDS011;27286;47.870;19.006;2023-03-19T10:45:56;6.53;;;2.90;;
41572;SDS011;27286;47.870;19.006;2023-03-19T10:48:21;5.03;;;3.55;;
41572;SDS011;27286;47.870;19.006;2023-03-19T10:50:55;6.65;;;3.42;;
41572;SDS011;27286;47.870;19.006;2023-03-19T10:53:33;7.80;;;3.83;;
41572;SDS011;27286;47.870;19.006;2023-03-19T10:56:04;5.57;;;3.00;;
41572;SDS011;27286;47.870;19.006;2023-03-19T10:58:32;9.77;;;3.28;;
41572;SDS011;27286;47.870;19.006;2023-03-19T11:01:07;8.10;;;4.03;;
41572;SDS011;27286;47.870;19.006;2023-03-19T11:03:35;3.85;;;2.58;;
41572;SDS011;27286;47.870;19.006;2023-03-19T11:06:04;5.90;;;3.95;;
41572;SDS011;27286;47.870;19.006;2023-03-19T11:08:35;8.77;;;4.07;;
41572;SDS011;27286;47.870;19.006;2023-03-19T11:11:02;6.80;;;3.22;;
41572;SDS011;27286;47.870;19.006;2023-03-19T11:13:28;4.63;;;3.17;;
41572;SDS011;27286;47.870;19.006;2023-03-19T11:15:56;9.88;;;3.92;;
41572;SDS011;27286;47.870;19.006;2023-03-19T11:18:27;7.90;;;3.78;;
41572;SDS011;27286;47.870;19.006;2023-03-19T11:21:13;6.22;;;4.47;;
41572;SDS011;27286;47.870;19.006;2023-03-19T11:23:50;4.10;;;3.22;;
41572;SDS011;27286;47.870;19.006;2023-03-19T11:26:17;8.27;;;3.42;;
41572;SDS011;27286;47.870;19.006;2023-03-19T11:28:43;5.70;;;3.45;;
41572;SDS011;27286;47.870;19.006;2023-03-19T11:45:20;4.30;;;3.90;;
41572;SDS011;27286;47.870;19.006;2023-03-19T12:04:46;6.30;;;3.65;;
41572;SDS011;27286;47.870;19.006;2023-03-19T12:07:32;5.22;;;3.60;;
41572;SDS011;27286;47.870;19.006;2023-03-19T12:15:38;4.30;;;3.47;;
41572;SDS011;27286;47.870;19.006;2023-03-19T12:29:47;4.78;;;4.10;;
41572;SDS011;27286;47.870;19.006;2023-03-19T12:34:49;6.15;;;3.47;;
41572;SDS011;27286;47.870;19.006;2023-03-19T12:42:33;6.85;;;4.38;;
41572;SDS011;27286;47.870;19.006;2023-03-19T12:45:04;11.88;;;4.32;;
41572;SDS011;27286;47.870;19.006;2023-03-19T12:47:40;6.32;;;4.53;;
41572;SDS011;27286;47.870;19.006;2023-03-19T12:50:08;5.18;;;3.83;;
41572;SDS011;27286;47.870;19.006;2023-03-19T12:52:38;5.70;;;3.88;;
41572;SDS011;27286;47.870;19.006;2023-03-19T12:55:26;7.35;;;4.47;;
41572;SDS011;27286;47.870;19.006;2023-03-19T12:58:05;8.57;;;4.63;;
41572;SDS011;27286;47.870;19.006;2023-03-19T13:06:33;34.58;;;15.75;;
41572;SDS011;27286;47.870;19.006;2023-03-19T13:09:07;16.42;;;6.00;;
41572;SDS011;27286;47.870;19.006;2023-03-19T13:11:48;14.52;;;10.00;;
41572;SDS011;27286;47.870;19.006;2023-03-19T13:14:28;9.70;;;7.00;;
41572;SDS011;27286;47.870;19.006;2023-03-19T13:20:04;8.27;;;6.28;;
41572;SDS011;27286;47.870;19.006;2023-03-19T13:22:53;10.80;;;7.70;;
41572;SDS011;27286;47.870;19.006;2023-03-19T13:25:22;10.07;;;6.95;;
41572;SDS011;27286;47.870;19.006;2023-03-19T13:27:55;11.07;;;6.68;;
41572;SDS011;27286;47.870;19.006;2023-03-19T13:30:21;9.35;;;4.60;;
41572;SDS011;27286;47.870;19.006;2023-03-19T13:32:49;6.20;;;4.15;;
41572;SDS011;27286;47.870;19.006;2023-03-19T13:40:46;6.18;;;4.72;;
41572;SDS011;27286;47.870;19.006;2023-03-19T13:43:19;12.32;;;4.45;;
41572;SDS011;27286;47.870;19.006;2023-03-19T13:45:45;7.15;;;3.88;;
41572;SDS011;27286;47.870;19.006;2023-03-19T13:51:34;5.85;;;2.92;;
41572;SDS011;27286;47.870;19.006;2023-03-19T13:59:33;9.15;;;3.85;;
41572;SDS011;27286;47.870;19.006;2023-03-19T14:02:43;6.47;;;4.00;;
41572;SDS011;27286;47.870;19.006;2023-03-19T14:04:57;6.45;;;4.18;;
41572;SDS011;27286;47.870;19.006;2023-03-19T14:07:26;23.42;;;5.50;;
41572;SDS011;27286;47.870;19.006;2023-03-19T14:14:57;5.85;;;3.72;;
41572;SDS011;27286;47.870;19.006;2023-03-19T14:17:39;7.38;;;4.40;;
41572;SDS011;27286;47.870;19.006;2023-03-19T14:22:40;5.95;;;3.35;;
41572;SDS011;27286;47.870;19.006;2023-03-19T14:28:16;6.75;;;4.47;;
41572;SDS011;27286;47.870;19.006;2023-03-19T14:30:45;9.32;;;4.00;;
41572;SDS011;27286;47.870;19.006;2023-03-19T14:33:22;8.68;;;4.28;;
41572;SDS011;27286;47.870;19.006;2023-03-19T14:35:52;10.18;;;6.50;;
41572;SDS011;27286;47.870;19.006;2023-03-19T14:40:52;5.65;;;4.00;;
41572;SDS011;27286;47.870;19.006;2023-03-19T14:45:58;6.95;;;4.03;;
41572;SDS011;27286;47.870;19.006;2023-03-19T14:53:51;10.70;;;4.75;;
41572;SDS011;27286;47.870;19.006;2023-03-19T14:56:21;10.00;;;5.43;;
41572;SDS011;27286;47.870;19.006;2023-03-19T14:58:56;7.45;;;5.15;;
41572;SDS011;27286;47.870;19.006;2023-03-19T15:01:25;10.25;;;5.65;;
41572;SDS011;27286;47.870;19.006;2023-03-19T15:03:56;7.30;;;4.47;;
41572;SDS011;27286;47.870;19.006;2023-03-19T15:06:24;10.23;;;2.88;;
41572;SDS011;27286;47.870;19.006;2023-03-19T15:08:57;7.70;;;4.78;;
41572;SDS011;27286;47.870;19.006;2023-03-19T15:11:32;6.05;;;3.50;;
41572;SDS011;27286;47.870;19.006;2023-03-19T15:14:28;11.43;;;4.80;;
41572;SDS011;27286;47.870;19.006;2023-03-19T15:17:22;10.68;;;5.60;;
41572;SDS011;27286;47.870;19.006;2023-03-19T15:19:50;16.05;;;7.03;;
41572;SDS011;27286;47.870;19.006;2023-03-19T15:22:22;7.72;;;5.00;;
41572;SDS011;27286;47.870;19.006;2023-03-19T15:24:50;7.40;;;4.50;;
41572;SDS011;27286;47.870;19.006;2023-03-19T15:27:22;5.13;;;3.38;;
41572;SDS011;27286;47.870;19.006;2023-03-19T15:29:50;4.65;;;3.00;;
41572;SDS011;27286;47.870;19.006;2023-03-19T15:32:32;6.47;;;4.28;;
41572;SDS011;27286;47.870;19.006;2023-03-19T15:34:59;10.98;;;7.20;;
41572;SDS011;27286;47.870;19.006;2023-03-19T15:37:27;9.65;;;8.10;;
41572;SDS011;27286;47.870;19.006;2023-03-19T15:39:56;8.60;;;6.82;;
41572;SDS011;27286;47.870;19.006;2023-03-19T15:42:25;7.35;;;4.57;;
41572;SDS011;27286;47.870;19.006;2023-03-19T15:45:09;14.75;;;6.55;;
41572;SDS011;27286;47.870;19.006;2023-03-19T15:47:38;19.45;;;12.35;;
41572;SDS011;27286;47.870;19.006;2023-03-19T15:50:12;14.85;;;6.22;;
41572;SDS011;27286;47.870;19.006;2023-03-19T15:52:44;34.40;;;16.60;;
41572;SDS011;27286;47.870;19.006;2023-03-19T15:55:16;20.13;;;13.13;;
41572;SDS011;27286;47.870;19.006;2023-03-19T15:57:45;43.35;;;21.48;;
41572;SDS011;27286;47.870;19.006;2023-03-19T16:00:12;31.95;;;20.65;;
41572;SDS011;27286;47.870;19.006;2023-03-19T16:02:40;21.55;;;14.98;;
41572;SDS011;27286;47.870;19.006;2023-03-19T16:05:28;18.13;;;13.57;;
41572;SDS011;27286;47.870;19.006;2023-03-19T16:07:59;17.40;;;14.25;;
41572;SDS011;27286;47.870;19.006;2023-03-19T16:13:00;46.83;;;28.67;;
41572;SDS011;27286;47.870;19.006;2023-03-19T16:15:36;25.30;;;13.65;;
41572;SDS011;27286;47.870;19.006;2023-03-19T16:20:57;11.63;;;4.95;;
41572;SDS011;27286;47.870;19.006;2023-03-19T16:23:28;9.52;;;4.18;;
41572;SDS011;27286;47.870;19.006;2023-03-19T16:26:02;5.57;;;3.60;;
41572;SDS011;27286;47.870;19.006;2023-03-19T16:31:28;8.25;;;4.18;;
41572;SDS011;27286;47.870;19.006;2023-03-19T16:33:58;7.35;;;3.70;;